createdAt,value
2023-03-27T04:17:15.638Z,11.04
2023-03-27T04:20:30.257Z,11.11
2023-03-27T04:23:45.389Z,11.13
2023-03-27T04:27:01.438Z,11.24
2023-03-27T04:30:16.021Z,10.98
2023-03-27T04:33:31.821Z,11.36
2023-03-27T04:36:46.059Z,11.34
2023-03-27T04:40:00.608Z,11.38
2023-03-27T04:43:14.944Z,11.26
2023-03-27T04:46:29.324Z,11.35
2023-03-27T04:49:46.969Z,11.15
2023-03-27T04:53:02.263Z,11.09
2023-03-27T04:56:16.534Z,11.10
2023-03-27T04:59:32.248Z,10.91
2023-03-27T05:02:46.890Z,11.06
2023-03-27T05:06:08.312Z,11.16
2023-03-27T05:09:39.446Z,11.07
2023-03-27T05:13:07.148Z,11.14
2023-03-27T05:16:22.976Z,11.04
2023-03-27T05:19:41.479Z,11.05
2023-03-27T05:23:02.371Z,11.01
2023-03-27T05:30:04.864Z,10.84
2023-03-27T05:33:26.567Z,10.99
2023-03-27T05:36:57.933Z,10.93
2023-03-27T05:40:37.625Z,11.05
2023-03-27T05:44:23.887Z,11.15
2023-03-27T05:48:03.277Z,11.27
2023-03-27T05:51:36.966Z,11.35
2023-03-27T05:59:02.203Z,11.10
2023-03-27T06:02:40.463Z,11.14
2023-03-27T06:06:21.793Z,11.16
2023-03-27T06:10:16.159Z,11.15
2023-03-27T06:14:02.713Z,11.16
2023-03-27T06:17:21.137Z,11.06
2023-03-27T06:24:38.889Z,10.68
2023-03-27T06:28:01.090Z,10.92
2023-03-27T06:31:51.985Z,10.68
2023-03-27T06:39:20.912Z,10.27
2023-03-27T06:46:45.215Z,10.33
2023-03-27T06:50:26.424Z,10.20
2023-03-27T06:53:51.302Z,10.38
2023-03-27T06:57:25.879Z,10.29
2023-03-27T07:00:42.124Z,10.37
2023-03-27T07:04:25.135Z,10.45
2023-03-27T07:08:15.132Z,10.59
2023-03-27T07:12:03.907Z,10.54
2023-03-27T07:15:21.982Z,10.55
2023-03-27T07:18:46.096Z,10.39
2023-03-27T07:22:30.578Z,10.63
2023-03-27T07:29:39.958Z,10.44
2023-03-27T07:33:00.414Z,10.50
2023-03-27T07:36:21.580Z,10.45
2023-03-27T07:39:36.751Z,10.64
2023-03-27T07:43:28.530Z,10.28
2023-03-27T07:50:23.275Z,11.09
2023-03-27T07:53:43.791Z,10.67
2023-03-27T07:57:10.113Z,10.90
2023-03-27T08:00:53.696Z,10.69
2023-03-27T08:04:21.741Z,10.91
2023-03-27T08:07:44.560Z,10.77
2023-03-27T08:11:42.253Z,10.93
2023-03-27T08:15:26.008Z,10.79
2023-03-27T08:19:32.579Z,10.82
2023-03-27T08:23:07.992Z,10.76
2023-03-27T08:26:23.839Z,10.85
2023-03-27T08:29:53.217Z,10.84
2023-03-27T08:33:22.753Z,10.81
2023-03-27T08:37:08.565Z,10.60
2023-03-27T08:40:38.712Z,10.68
2023-03-27T08:44:01.296Z,10.91
2023-03-27T08:47:40.825Z,10.67
2023-03-27T08:54:59.298Z,10.88
2023-03-27T08:58:28.462Z,10.92
2023-03-27T09:02:33.997Z,10.80
2023-03-27T09:06:23.296Z,10.92
2023-03-27T09:10:02.601Z,10.98
2023-03-27T09:13:49.225Z,10.90
2023-03-27T09:18:00.334Z,10.79
2023-03-27T09:21:24.800Z,10.77
2023-03-27T09:25:12.478Z,10.82
2023-03-27T09:28:40.069Z,10.68
2023-03-27T09:32:10.582Z,10.84
2023-03-27T09:35:25.747Z,10.84
2023-03-27T09:38:43.484Z,10.86
2023-03-27T09:42:11.252Z,10.73
2023-03-27T09:45:37.856Z,10.66
2023-03-27T09:49:21.594Z,10.75
2023-03-27T09:52:38.999Z,10.81
2023-03-27T09:55:57.333Z,11.01
2023-03-27T09:59:43.654Z,10.81
2023-03-27T10:03:10.505Z,10.85
2023-03-27T10:06:36.293Z,11.06
2023-03-27T10:10:35.356Z,10.73
2023-03-27T10:13:52.246Z,10.65
2023-03-27T10:17:31.129Z,10.38
2023-03-27T10:20:52.039Z,10.67
2023-03-27T10:27:51.411Z,10.45
2023-03-27T10:31:31.140Z,10.41
2023-03-27T10:34:58.790Z,10.44
2023-03-27T10:39:01.052Z,10.50
2023-03-27T10:42:21.933Z,10.45
2023-03-27T10:45:42.235Z,10.52
2023-03-27T10:49:18.095Z,10.28
2023-03-27T10:52:58.699Z,10.40
2023-03-27T10:56:34.247Z,10.35
2023-03-27T11:00:19.658Z,10.24
2023-03-27T11:07:49.577Z,10.04
2023-03-27T11:11:14.525Z,10.38
2023-03-27T11:14:50.706Z,10.03
2023-03-27T11:18:12.675Z,10.50
2023-03-27T11:25:20.956Z,10.44
2023-03-27T11:28:55.735Z,10.67
2023-03-27T11:32:22.804Z,10.82
2023-03-27T11:35:48.225Z,10.94
2023-03-27T11:39:20.146Z,10.90
2023-03-27T11:42:37.335Z,11.07
2023-03-27T11:46:08.677Z,10.74
2023-03-27T11:49:36.436Z,11.05
2023-03-27T11:53:08.329Z,10.78
2023-03-27T11:56:34.193Z,10.69
2023-03-27T12:00:15.009Z,10.44
2023-03-27T12:04:13.812Z,10.69
2023-03-27T12:11:26.516Z,10.77
2023-03-27T12:15:01.218Z,10.72
2023-03-27T12:18:36.398Z,10.73
2023-03-27T12:26:05.545Z,10.54
2023-03-27T12:30:04.558Z,10.51
2023-03-27T12:37:24.870Z,10.14
2023-03-27T12:40:50.065Z,10.26
2023-03-27T12:44:33.548Z,10.48
2023-03-27T12:47:53.324Z,10.44
2023-03-27T12:51:16.999Z,10.34
2023-03-27T12:54:32.001Z,10.42
2023-03-27T12:57:47.012Z,10.35
2023-03-27T13:01:20.452Z,10.43
2023-03-27T13:04:57.062Z,10.31
2023-03-27T13:13:02.606Z,10.38
2023-03-27T13:16:28.344Z,10.36
2023-03-27T13:19:50.394Z,10.51
2023-03-27T13:23:41.015Z,10.54
2023-03-27T13:30:50.286Z,10.38
2023-03-27T13:34:44.335Z,10.52
2023-03-27T13:38:17.705Z,10.15
2023-03-27T13:41:48.693Z,10.31
2023-03-27T13:45:29.524Z,10.62
2023-03-27T13:49:22.290Z,10.36
2023-03-27T13:53:13.434Z,9.95
2023-03-27T13:56:50.668Z,9.85
2023-03-27T14:04:53.431Z,9.87
2023-03-27T14:08:18.261Z,10.04
2023-03-27T14:11:39.274Z,9.68
2023-03-27T14:15:10.719Z,9.53
2023-03-27T14:18:37.679Z,9.39
2023-03-27T14:21:53.683Z,9.24
2023-03-27T14:25:12.990Z,9.24
2023-03-27T14:28:29.914Z,9.17
2023-03-27T14:31:44.726Z,9.08
2023-03-27T14:35:04.687Z,8.82
2023-03-27T14:38:23.033Z,8.76
2023-03-27T14:41:47.696Z,8.71
2023-03-27T14:45:18.113Z,8.78
2023-03-27T14:48:33.414Z,8.59
2023-03-27T14:51:48.297Z,8.38
2023-03-27T14:55:02.549Z,8.58
2023-03-27T14:58:19.407Z,8.39
2023-03-27T15:01:35.487Z,8.37
2023-03-27T15:04:50.358Z,8.52
2023-03-27T15:08:04.646Z,8.48
2023-03-27T15:11:20.981Z,8.04
2023-03-27T15:14:36.662Z,8.02
2023-03-27T15:17:54.894Z,8.20
2023-03-27T15:21:11.640Z,8.07
2023-03-27T15:24:31.383Z,7.67
2023-03-27T15:27:48.434Z,7.79
